RSC6767 GCFV-GCXO
Flight info
| Callsign | RSC6767 |
|---|---|
| Flight time | 0h 39m |
| Altitude | 15000 |
| Route | LARYS |
| Aircraft | AT76/M-SDFGIRY/S |
Departure
| Time | 2026-05-04 19:33 |
|---|---|
| Airport | Fuerteventura Airport (GCFV) |
Arrival
| Time | 2026-05-04 20:12 |
|---|---|
| Airport | Tenerife Norte-Ciudad de La Laguna Airport (GCXO) |
| Time | Latitude | Longitude | Altitude | Speed | Heading |
|---|---|---|---|---|---|
| 2026-05-04 19:21 | 28.45659 | -13.86627 | 81 ft | 0 kts | 268° |
| 2026-05-04 19:28 | 28.45660 | -13.86600 | 81 ft | 5 kts | 269° |
| 2026-05-04 19:28 | 28.45670 | -13.86563 | 85 ft | 1 kts | 199° |
| 2026-05-04 19:28 | 28.45622 | -13.86556 | 81 ft | 13 kts | 183° |
| 2026-05-04 19:28 | 28.45509 | -13.86563 | 77 ft | 19 kts | 183° |
| 2026-05-04 19:29 | 28.45366 | -13.86567 | 68 ft | 22 kts | 180° |
| 2026-05-04 19:29 | 28.45209 | -13.86570 | 69 ft | 23 kts | 183° |
| 2026-05-04 19:29 | 28.45048 | -13.86575 | 61 ft | 24 kts | 179° |
| 2026-05-04 19:29 | 28.44882 | -13.86581 | 61 ft | 25 kts | 182° |
| 2026-05-04 19:30 | 28.44707 | -13.86585 | 57 ft | 25 kts | 184° |
| 2026-05-04 19:30 | 28.44529 | -13.86593 | 52 ft | 25 kts | 181° |
| 2026-05-04 19:30 | 28.44353 | -13.86597 | 45 ft | 25 kts | 181° |
| 2026-05-04 19:30 | 28.44174 | -13.86603 | 43 ft | 26 kts | 181° |
| 2026-05-04 19:31 | 28.43993 | -13.86611 | 38 ft | 26 kts | 181° |
| 2026-05-04 19:31 | 28.43816 | -13.86618 | 33 ft | 25 kts | 182° |
| 2026-05-04 19:31 | 28.43635 | -13.86624 | 29 ft | 26 kts | 183° |
| 2026-05-04 19:31 | 28.43505 | -13.86580 | 28 ft | 16 kts | 90° |
| 2026-05-04 19:32 | 28.43558 | -13.86524 | 26 ft | 7 kts | 33° |
| 2026-05-04 19:32 | 28.43613 | -13.86486 | 28 ft | 23 kts | 28° |
| 2026-05-04 19:32 | 28.43945 | -13.86419 | 34 ft | 79 kts | 2° |
| 2026-05-04 19:32 | 28.44653 | -13.86411 | 172 ft | 113 kts | 2° |
| 2026-05-04 19:33 | 28.45449 | -13.86436 | 654 ft | 118 kts | 2° |
| 2026-05-04 19:33 | 28.46291 | -13.86225 | 1041 ft | 131 kts | 22° |
| 2026-05-04 19:33 | 28.47179 | -13.85887 | 1462 ft | 138 kts | 20° |
| 2026-05-04 19:33 | 28.48095 | -13.85512 | 1821 ft | 142 kts | 21° |
| 2026-05-04 19:34 | 28.49067 | -13.85141 | 2133 ft | 153 kts | 9° |
| 2026-05-04 19:34 | 28.50092 | -13.85561 | 2322 ft | 177 kts | 316° |
| 2026-05-04 19:34 | 28.50677 | -13.86858 | 2530 ft | 190 kts | 295° |
| 2026-05-04 19:34 | 28.51162 | -13.88281 | 2833 ft | 196 kts | 294° |
| 2026-05-04 19:35 | 28.51636 | -13.89741 | 3130 ft | 198 kts | 294° |
| 2026-05-04 19:35 | 28.52148 | -13.91173 | 3610 ft | 189 kts | 296° |
| 2026-05-04 19:35 | 28.52661 | -13.92490 | 4176 ft | 177 kts | 296° |
| 2026-05-04 19:35 | 28.53161 | -13.93765 | 4586 ft | 175 kts | 296° |
| 2026-05-04 19:36 | 28.53762 | -13.94928 | 4901 ft | 168 kts | 302° |
| 2026-05-04 19:36 | 28.54264 | -13.96172 | 5060 ft | 176 kts | 291° |
| 2026-05-04 19:36 | 28.54666 | -13.97485 | 5408 ft | 177 kts | 288° |
| 2026-05-04 19:36 | 28.54881 | -13.98853 | 5738 ft | 177 kts | 267° |
| 2026-05-04 19:37 | 28.54759 | -14.00248 | 6065 ft | 178 kts | 266° |
| 2026-05-04 19:37 | 28.54678 | -14.01652 | 6409 ft | 178 kts | 269° |
| 2026-05-04 19:37 | 28.54643 | -14.03053 | 6754 ft | 177 kts | 270° |
| 2026-05-04 19:37 | 28.54641 | -14.04449 | 7069 ft | 177 kts | 271° |
| 2026-05-04 19:38 | 28.54640 | -14.05855 | 7372 ft | 178 kts | 271° |
| 2026-05-04 19:38 | 28.54645 | -14.07264 | 7692 ft | 178 kts | 271° |
| 2026-05-04 19:38 | 28.54651 | -14.08669 | 8034 ft | 177 kts | 271° |
| 2026-05-04 19:38 | 28.54656 | -14.10054 | 8336 ft | 178 kts | 271° |
| 2026-05-04 19:39 | 28.54661 | -14.11462 | 8636 ft | 178 kts | 271° |
| 2026-05-04 19:39 | 28.54667 | -14.12869 | 8949 ft | 178 kts | 270° |
| 2026-05-04 19:39 | 28.54671 | -14.14274 | 9252 ft | 178 kts | 270° |
| 2026-05-04 19:39 | 28.54675 | -14.15681 | 9558 ft | 178 kts | 270° |
| 2026-05-04 19:40 | 28.54676 | -14.17092 | 9856 ft | 178 kts | 270° |
| 2026-05-04 19:40 | 28.54681 | -14.18527 | 9991 ft | 187 kts | 270° |
| 2026-05-04 19:40 | 28.54689 | -14.20051 | 10030 ft | 199 kts | 270° |
| 2026-05-04 19:40 | 28.54707 | -14.21663 | 10049 ft | 209 kts | 271° |
| 2026-05-04 19:41 | 28.54733 | -14.23344 | 10055 ft | 216 kts | 271° |
| 2026-05-04 19:41 | 28.54747 | -14.25079 | 10060 ft | 222 kts | 270° |
| 2026-05-04 19:41 | 28.54753 | -14.26856 | 10060 ft | 227 kts | 270° |
| 2026-05-04 19:41 | 28.54757 | -14.28665 | 10062 ft | 231 kts | 270° |
| 2026-05-04 19:42 | 28.54760 | -14.30501 | 10061 ft | 233 kts | 270° |
| 2026-05-04 19:42 | 28.54764 | -14.32351 | 10062 ft | 235 kts | 270° |
| 2026-05-04 19:42 | 28.54767 | -14.34210 | 10061 ft | 235 kts | 270° |
| 2026-05-04 19:42 | 28.54770 | -14.36072 | 10062 ft | 236 kts | 270° |
| 2026-05-04 19:43 | 28.54773 | -14.37939 | 10065 ft | 236 kts | 270° |
| 2026-05-04 19:43 | 28.54774 | -14.39808 | 10064 ft | 237 kts | 270° |
| 2026-05-04 19:43 | 28.54777 | -14.41681 | 10064 ft | 237 kts | 270° |
| 2026-05-04 19:43 | 28.54778 | -14.43557 | 10065 ft | 237 kts | 270° |
| 2026-05-04 19:44 | 28.54780 | -14.45432 | 10068 ft | 237 kts | 270° |
| 2026-05-04 19:44 | 28.54781 | -14.47312 | 10062 ft | 238 kts | 270° |
| 2026-05-04 19:44 | 28.54782 | -14.49192 | 10066 ft | 238 kts | 270° |
| 2026-05-04 19:44 | 28.54784 | -14.51076 | 10067 ft | 238 kts | 270° |
| 2026-05-04 19:45 | 28.54784 | -14.52935 | 10064 ft | 238 kts | 270° |
| 2026-05-04 19:45 | 28.54783 | -14.54819 | 10065 ft | 238 kts | 270° |
| 2026-05-04 19:45 | 28.54784 | -14.56704 | 10068 ft | 238 kts | 270° |
| 2026-05-04 19:45 | 28.54783 | -14.58590 | 10069 ft | 239 kts | 270° |
| 2026-05-04 19:46 | 28.54782 | -14.60480 | 10067 ft | 239 kts | 270° |
| 2026-05-04 19:46 | 28.54782 | -14.62370 | 10066 ft | 239 kts | 270° |
| 2026-05-04 19:46 | 28.54780 | -14.64261 | 10068 ft | 239 kts | 270° |
| 2026-05-04 19:46 | 28.54781 | -14.66152 | 10069 ft | 239 kts | 270° |
| 2026-05-04 19:47 | 28.54778 | -14.68045 | 10072 ft | 239 kts | 270° |
| 2026-05-04 19:47 | 28.54778 | -14.69938 | 10069 ft | 240 kts | 270° |
| 2026-05-04 19:47 | 28.54773 | -14.71833 | 10067 ft | 239 kts | 270° |
| 2026-05-04 19:47 | 28.54772 | -14.73725 | 10068 ft | 240 kts | 269° |
| 2026-05-04 19:48 | 28.54769 | -14.75620 | 10071 ft | 240 kts | 270° |
| 2026-05-04 19:48 | 28.54767 | -14.77515 | 10070 ft | 240 kts | 270° |
| 2026-05-04 19:48 | 28.54762 | -14.79413 | 10068 ft | 240 kts | 269° |
| 2026-05-04 19:48 | 28.54759 | -14.81310 | 10073 ft | 240 kts | 269° |
| 2026-05-04 19:49 | 28.54756 | -14.83209 | 10071 ft | 240 kts | 269° |
| 2026-05-04 19:49 | 28.54753 | -14.85107 | 10072 ft | 240 kts | 269° |
| 2026-05-04 19:49 | 28.54747 | -14.87006 | 10071 ft | 240 kts | 269° |
| 2026-05-04 19:49 | 28.54744 | -14.88897 | 10072 ft | 240 kts | 269° |
| 2026-05-04 19:50 | 28.54737 | -14.90807 | 10071 ft | 240 kts | 269° |
| 2026-05-04 19:50 | 28.54733 | -14.92708 | 10069 ft | 240 kts | 269° |
| 2026-05-04 19:50 | 28.54728 | -14.94608 | 10073 ft | 240 kts | 269° |
| 2026-05-04 19:50 | 28.54723 | -14.96507 | 10071 ft | 240 kts | 269° |
| 2026-05-04 19:51 | 28.54715 | -14.98409 | 10066 ft | 240 kts | 269° |
| 2026-05-04 19:51 | 28.54710 | -15.00310 | 10070 ft | 240 kts | 269° |
| 2026-05-04 19:51 | 28.54705 | -15.02210 | 10070 ft | 240 kts | 269° |
| 2026-05-04 19:51 | 28.54697 | -15.04112 | 10072 ft | 240 kts | 269° |
| 2026-05-04 19:52 | 28.54689 | -15.06015 | 10074 ft | 240 kts | 269° |
| 2026-05-04 19:52 | 28.54682 | -15.07917 | 10072 ft | 241 kts | 269° |
| 2026-05-04 19:52 | 28.54677 | -15.09819 | 10072 ft | 241 kts | 269° |
| 2026-05-04 19:52 | 28.54668 | -15.11720 | 10075 ft | 241 kts | 269° |
| 2026-05-04 19:53 | 28.54659 | -15.13625 | 10073 ft | 241 kts | 269° |
| 2026-05-04 19:53 | 28.54652 | -15.15504 | 10070 ft | 241 kts | 269° |
| 2026-05-04 19:53 | 28.54645 | -15.17406 | 10072 ft | 241 kts | 269° |
| 2026-05-04 19:53 | 28.54635 | -15.19312 | 10069 ft | 241 kts | 269° |
| 2026-05-04 19:54 | 28.54627 | -15.21218 | 10071 ft | 241 kts | 269° |
| 2026-05-04 19:54 | 28.54617 | -15.23125 | 10069 ft | 241 kts | 269° |
| 2026-05-04 19:54 | 28.54608 | -15.25031 | 10070 ft | 241 kts | 269° |
| 2026-05-04 19:54 | 28.54599 | -15.26939 | 10071 ft | 241 kts | 269° |
| 2026-05-04 19:55 | 28.54588 | -15.28848 | 10067 ft | 241 kts | 269° |
| 2026-05-04 19:55 | 28.54578 | -15.30758 | 10070 ft | 241 kts | 269° |
| 2026-05-04 19:55 | 28.54566 | -15.32667 | 10067 ft | 241 kts | 269° |
| 2026-05-04 19:55 | 28.54557 | -15.34576 | 10067 ft | 242 kts | 269° |
| 2026-05-04 19:56 | 28.54546 | -15.36488 | 10072 ft | 242 kts | 269° |
| 2026-05-04 19:56 | 28.54533 | -15.38403 | 10071 ft | 242 kts | 269° |
| 2026-05-04 19:56 | 28.54522 | -15.40317 | 10070 ft | 242 kts | 269° |
| 2026-05-04 19:56 | 28.54510 | -15.42234 | 10076 ft | 242 kts | 269° |
| 2026-05-04 19:57 | 28.54497 | -15.44150 | 10073 ft | 242 kts | 269° |
| 2026-05-04 19:57 | 28.54484 | -15.46069 | 10074 ft | 243 kts | 269° |
| 2026-05-04 19:57 | 28.54468 | -15.48016 | 10076 ft | 249 kts | 269° |
| 2026-05-04 19:57 | 28.54457 | -15.50008 | 10078 ft | 254 kts | 269° |
| 2026-05-04 19:58 | 28.54445 | -15.52034 | 10072 ft | 258 kts | 268° |
| 2026-05-04 19:58 | 28.54430 | -15.54084 | 10076 ft | 261 kts | 269° |
| 2026-05-04 19:58 | 28.54414 | -15.56154 | 10077 ft | 262 kts | 268° |
| 2026-05-04 19:58 | 28.54398 | -15.58235 | 10071 ft | 264 kts | 269° |
| 2026-05-04 19:59 | 28.54384 | -15.60328 | 10074 ft | 265 kts | 268° |
| 2026-05-04 19:59 | 28.54367 | -15.62426 | 10070 ft | 266 kts | 268° |
| 2026-05-04 19:59 | 28.54298 | -15.64524 | 10071 ft | 264 kts | 261° |
| 2026-05-04 19:59 | 28.53554 | -15.66300 | 10228 ft | 238 kts | 245° |
| 2026-05-04 20:00 | 28.53272 | -15.68165 | 10222 ft | 245 kts | 273° |
| 2026-05-04 20:00 | 28.53500 | -15.70112 | 10185 ft | 252 kts | 277° |
| 2026-05-04 20:00 | 28.53844 | -15.72057 | 10263 ft | 250 kts | 281° |
| 2026-05-04 20:00 | 28.54290 | -15.73987 | 10202 ft | 256 kts | 280° |
| 2026-05-04 20:01 | 28.54446 | -15.76017 | 10138 ft | 259 kts | 267° |
| 2026-05-04 20:01 | 28.54330 | -15.78073 | 10108 ft | 262 kts | 264° |
| 2026-05-04 20:01 | 28.54175 | -15.80144 | 10096 ft | 264 kts | 264° |
| 2026-05-04 20:01 | 28.54061 | -15.82233 | 10081 ft | 265 kts | 266° |
| 2026-05-04 20:02 | 28.54024 | -15.84334 | 10082 ft | 266 kts | 268° |
| 2026-05-04 20:02 | 28.54024 | -15.86442 | 10083 ft | 267 kts | 269° |
| 2026-05-04 20:02 | 28.54018 | -15.88556 | 10082 ft | 267 kts | 268° |
| 2026-05-04 20:02 | 28.54003 | -15.90673 | 10084 ft | 268 kts | 268° |
| 2026-05-04 20:03 | 28.53987 | -15.92675 | 10082 ft | 268 kts | 268° |
| 2026-05-04 20:03 | 28.53969 | -15.94793 | 10084 ft | 268 kts | 268° |
| 2026-05-04 20:03 | 28.53950 | -15.96915 | 10088 ft | 268 kts | 268° |
| 2026-05-04 20:03 | 28.53931 | -15.99038 | 10085 ft | 269 kts | 268° |
| 2026-05-04 20:04 | 28.53911 | -16.01133 | 10090 ft | 269 kts | 268° |
| 2026-05-04 20:04 | 28.53891 | -16.03255 | 10094 ft | 268 kts | 268° |
| 2026-05-04 20:04 | 28.53871 | -16.05378 | 10091 ft | 269 kts | 268° |
| 2026-05-04 20:04 | 28.53852 | -16.07510 | 10003 ft | 271 kts | 268° |
| 2026-05-04 20:05 | 28.53834 | -16.09634 | 9782 ft | 267 kts | 268° |
| 2026-05-04 20:05 | 28.53812 | -16.11743 | 9517 ft | 266 kts | 268° |
| 2026-05-04 20:05 | 28.53790 | -16.13841 | 9210 ft | 266 kts | 268° |
| 2026-05-04 20:05 | 28.53766 | -16.15961 | 8841 ft | 270 kts | 268° |
| 2026-05-04 20:06 | 28.53743 | -16.18101 | 8453 ft | 272 kts | 269° |
| 2026-05-04 20:06 | 28.53723 | -16.20238 | 8201 ft | 264 kts | 269° |
| 2026-05-04 20:06 | 28.53712 | -16.22164 | 7931 ft | 226 kts | 269° |
| 2026-05-04 20:06 | 28.53703 | -16.23327 | 7706 ft | 210 kts | 269° |
| 2026-05-04 20:07 | 28.53683 | -16.24976 | 7363 ft | 212 kts | 268° |
| 2026-05-04 20:07 | 28.53661 | -16.27231 | 6880 ft | 217 kts | 275° |
| 2026-05-04 20:07 | 28.53892 | -16.28362 | 6667 ft | 219 kts | 287° |
| 2026-05-04 20:07 | 28.54400 | -16.30008 | 6367 ft | 219 kts | 289° |
| 2026-05-04 20:08 | 28.54899 | -16.31566 | 5957 ft | 202 kts | 290° |
| 2026-05-04 20:08 | 28.55344 | -16.33005 | 5581 ft | 190 kts | 289° |
| 2026-05-04 20:08 | 28.55746 | -16.34417 | 5205 ft | 181 kts | 288° |
| 2026-05-04 20:08 | 28.56101 | -16.35733 | 4766 ft | 173 kts | 288° |
| 2026-05-04 20:09 | 28.56430 | -16.37008 | 4321 ft | 165 kts | 287° |
| 2026-05-04 20:09 | 28.56407 | -16.38243 | 3989 ft | 156 kts | 244° |
| 2026-05-04 20:09 | 28.55604 | -16.38976 | 3785 ft | 146 kts | 203° |
| 2026-05-04 20:09 | 28.54683 | -16.39422 | 3647 ft | 141 kts | 202° |
| 2026-05-04 20:10 | 28.53770 | -16.39808 | 3501 ft | 139 kts | 191° |
| 2026-05-04 20:10 | 28.52836 | -16.39695 | 3411 ft | 133 kts | 169° |
| 2026-05-04 20:10 | 28.51987 | -16.39351 | 3347 ft | 129 kts | 148° |
| 2026-05-04 20:10 | 28.51233 | -16.38802 | 3332 ft | 129 kts | 143° |
| 2026-05-04 20:11 | 28.50480 | -16.38198 | 3241 ft | 134 kts | 142° |
| 2026-05-04 20:11 | 28.49733 | -16.37568 | 3064 ft | 131 kts | 136° |
| 2026-05-04 20:11 | 28.49158 | -16.36775 | 2607 ft | 131 kts | 117° |
| 2026-05-04 20:11 | 28.48826 | -16.35813 | 2142 ft | 128 kts | 112° |
| 2026-05-04 20:12 | 28.48536 | -16.34946 | 2068 ft | 104 kts | 112° |
| 2026-05-04 20:12 | 28.48318 | -16.34312 | 2059 ft | 52 kts | 110° |
| 2026-05-04 20:12 | 28.48200 | -16.33951 | 2048 ft | 44 kts | 110° |
| 2026-05-04 20:12 | 28.48139 | -16.33631 | 2034 ft | 39 kts | 96° |
| 2026-05-04 20:13 | 28.48174 | -16.33545 | 2033 ft | 8 kts | 333° |
| 2026-05-04 20:13 | 28.48199 | -16.33599 | 2036 ft | 8 kts | 290° |
| 2026-05-04 20:13 | 28.48217 | -16.33656 | 2036 ft | 8 kts | 290° |
| 2026-05-04 20:13 | 28.48236 | -16.33713 | 2040 ft | 7 kts | 290° |
| 2026-05-04 20:14 | 28.48253 | -16.33766 | 2045 ft | 7 kts | 290° |
| 2026-05-04 20:14 | 28.48270 | -16.33819 | 2044 ft | 7 kts | 289° |
| 2026-05-04 20:14 | 28.48287 | -16.33870 | 2046 ft | 7 kts | 293° |
| 2026-05-04 20:14 | 28.48307 | -16.33928 | 2051 ft | 10 kts | 291° |
| 2026-05-04 20:15 | 28.48337 | -16.34020 | 2052 ft | 15 kts | 290° |
| 2026-05-04 20:15 | 28.48377 | -16.34142 | 2056 ft | 18 kts | 290° |
| 2026-05-04 20:15 | 28.48426 | -16.34286 | 2059 ft | 21 kts | 291° |
| 2026-05-04 20:15 | 28.48480 | -16.34452 | 2062 ft | 23 kts | 290° |
| 2026-05-04 20:16 | 28.48535 | -16.34609 | 2065 ft | 20 kts | 291° |
| 2026-05-04 20:16 | 28.48625 | -16.34681 | 2066 ft | 16 kts | 13° |
| 2026-05-04 20:16 | 28.48679 | -16.34658 | 2066 ft | 0 kts | 21° |